sensor_id;sensor_type;location;lat;lon;timestamp;P1;durP1;ratioP1;P2;durP2;ratioP2
41201;SDS011;26936;50.524;8.684;2022-10-17T00:00:37;6.93;;;4.50;;
41201;SDS011;26936;50.524;8.684;2022-10-17T00:03:02;6.37;;;4.50;;
41201;SDS011;26936;50.524;8.684;2022-10-17T00:05:28;7.13;;;3.65;;
41201;SDS011;26936;50.524;8.684;2022-10-17T00:07:53;6.35;;;4.32;;
41201;SDS011;26936;50.524;8.684;2022-10-17T00:10:19;6.60;;;3.63;;
41201;SDS011;26936;50.524;8.684;2022-10-17T00:12:45;7.07;;;3.97;;
41201;SDS011;26936;50.524;8.684;2022-10-17T00:15:13;6.28;;;3.60;;
41201;SDS011;26936;50.524;8.684;2022-10-17T00:17:40;6.65;;;3.50;;
41201;SDS011;26936;50.524;8.684;2022-10-17T00:20:06;5.43;;;3.97;;
41201;SDS011;26936;50.524;8.684;2022-10-17T00:22:32;12.75;;;3.83;;
41201;SDS011;26936;50.524;8.684;2022-10-17T00:24:57;6.53;;;3.88;;
41201;SDS011;26936;50.524;8.684;2022-10-17T00:27:23;4.83;;;3.70;;
41201;SDS011;26936;50.524;8.684;2022-10-17T00:29:48;8.93;;;3.83;;
41201;SDS011;26936;50.524;8.684;2022-10-17T00:32:15;6.70;;;3.63;;
41201;SDS011;26936;50.524;8.684;2022-10-17T00:34:40;6.80;;;3.53;;
41201;SDS011;26936;50.524;8.684;2022-10-17T00:37:06;7.00;;;3.47;;
41201;SDS011;26936;50.524;8.684;2022-10-17T00:39:31;4.07;;;3.22;;
41201;SDS011;26936;50.524;8.684;2022-10-17T00:41:56;10.45;;;3.85;;
41201;SDS011;26936;50.524;8.684;2022-10-17T00:46:53;8.32;;;3.88;;
41201;SDS011;26936;50.524;8.684;2022-10-17T00:49:19;6.35;;;3.50;;
41201;SDS011;26936;50.524;8.684;2022-10-17T00:52:03;5.70;;;3.70;;
41201;SDS011;26936;50.524;8.684;2022-10-17T00:54:33;6.13;;;3.53;;
41201;SDS011;26936;50.524;8.684;2022-10-17T00:57:04;6.22;;;3.30;;
41201;SDS011;26936;50.524;8.684;2022-10-17T00:59:31;7.97;;;3.38;;
41201;SDS011;26936;50.524;8.684;2022-10-17T01:02:02;6.57;;;3.33;;
41201;SDS011;26936;50.524;8.684;2022-10-17T01:04:30;12.52;;;4.05;;
41201;SDS011;26936;50.524;8.684;2022-10-17T01:06:56;6.60;;;3.10;;
41201;SDS011;26936;50.524;8.684;2022-10-17T01:09:21;6.82;;;3.65;;
41201;SDS011;26936;50.524;8.684;2022-10-17T01:11:55;4.90;;;3.38;;
41201;SDS011;26936;50.524;8.684;2022-10-17T01:17:05;7.43;;;3.47;;
41201;SDS011;26936;50.524;8.684;2022-10-17T01:22:34;4.28;;;3.35;;
41201;SDS011;26936;50.524;8.684;2022-10-17T01:35:19;7.88;;;3.42;;
41201;SDS011;26936;50.524;8.684;2022-10-17T01:40:19;11.73;;;3.87;;
41201;SDS011;26936;50.524;8.684;2022-10-17T01:45:25;5.90;;;3.80;;
41201;SDS011;26936;50.524;8.684;2022-10-17T01:48:08;9.23;;;3.70;;
41201;SDS011;26936;50.524;8.684;2022-10-17T01:50:42;6.43;;;3.15;;
41201;SDS011;26936;50.524;8.684;2022-10-17T01:53:13;6.60;;;3.95;;
41201;SDS011;26936;50.524;8.684;2022-10-17T01:55:43;5.85;;;3.80;;
41201;SDS011;26936;50.524;8.684;2022-10-17T01:58:11;5.18;;;3.45;;
41201;SDS011;26936;50.524;8.684;2022-10-17T02:00:40;6.47;;;3.75;;
41201;SDS011;26936;50.524;8.684;2022-10-17T02:03:10;4.68;;;3.40;;
41201;SDS011;26936;50.524;8.684;2022-10-17T02:05:40;8.48;;;4.00;;
41201;SDS011;26936;50.524;8.684;2022-10-17T02:08:07;8.25;;;3.50;;
41201;SDS011;26936;50.524;8.684;2022-10-17T02:10:38;8.13;;;3.13;;
41201;SDS011;26936;50.524;8.684;2022-10-17T02:13:18;7.00;;;3.28;;
41201;SDS011;26936;50.524;8.684;2022-10-17T02:24:17;7.28;;;4.22;;
41201;SDS011;26936;50.524;8.684;2022-10-17T02:27:05;7.13;;;4.40;;
41201;SDS011;26936;50.524;8.684;2022-10-17T02:29:38;7.07;;;4.25;;
41201;SDS011;26936;50.524;8.684;2022-10-17T02:32:30;6.38;;;4.30;;
41201;SDS011;26936;50.524;8.684;2022-10-17T02:35:00;10.13;;;4.38;;
41201;SDS011;26936;50.524;8.684;2022-10-17T02:37:27;8.88;;;4.65;;
41201;SDS011;26936;50.524;8.684;2022-10-17T02:39:55;10.13;;;3.90;;
41201;SDS011;26936;50.524;8.684;2022-10-17T02:42:23;8.27;;;4.20;;
41201;SDS011;26936;50.524;8.684;2022-10-17T02:44:49;6.75;;;4.35;;
41201;SDS011;26936;50.524;8.684;2022-10-17T02:47:24;5.80;;;4.25;;
41201;SDS011;26936;50.524;8.684;2022-10-17T02:49:54;7.18;;;4.57;;
41201;SDS011;26936;50.524;8.684;2022-10-17T02:52:23;6.63;;;4.13;;
41201;SDS011;26936;50.524;8.684;2022-10-17T02:55:11;8.48;;;4.50;;
41201;SDS011;26936;50.524;8.684;2022-10-17T02:57:55;6.13;;;4.43;;
41201;SDS011;26936;50.524;8.684;2022-10-17T03:00:24;5.27;;;3.93;;
41201;SDS011;26936;50.524;8.684;2022-10-17T03:02:51;5.57;;;4.43;;
41201;SDS011;26936;50.524;8.684;2022-10-17T03:05:19;6.10;;;4.20;;
41201;SDS011;26936;50.524;8.684;2022-10-17T03:07:46;11.38;;;4.97;;
41201;SDS011;26936;50.524;8.684;2022-10-17T03:10:12;7.25;;;4.18;;
41201;SDS011;26936;50.524;8.684;2022-10-17T03:12:37;7.57;;;3.67;;
41201;SDS011;26936;50.524;8.684;2022-10-17T03:15:02;8.02;;;4.00;;
41201;SDS011;26936;50.524;8.684;2022-10-17T03:17:28;5.72;;;3.97;;
41201;SDS011;26936;50.524;8.684;2022-10-17T03:19:53;8.23;;;4.00;;
41201;SDS011;26936;50.524;8.684;2022-10-17T03:22:19;9.05;;;4.25;;
41201;SDS011;26936;50.524;8.684;2022-10-17T03:24:44;5.10;;;3.83;;
41201;SDS011;26936;50.524;8.684;2022-10-17T03:27:09;8.23;;;4.18;;
41201;SDS011;26936;50.524;8.684;2022-10-17T03:29:35;11.32;;;4.35;;
41201;SDS011;26936;50.524;8.684;2022-10-17T03:32:00;7.05;;;4.53;;
41201;SDS011;26936;50.524;8.684;2022-10-17T03:34:25;7.10;;;4.47;;
41201;SDS011;26936;50.524;8.684;2022-10-17T03:36:50;6.70;;;3.93;;
41201;SDS011;26936;50.524;8.684;2022-10-17T03:39:16;8.90;;;4.47;;
41201;SDS011;26936;50.524;8.684;2022-10-17T03:41:41;8.43;;;4.20;;
41201;SDS011;26936;50.524;8.684;2022-10-17T03:44:06;7.80;;;4.20;;
41201;SDS011;26936;50.524;8.684;2022-10-17T03:46:32;8.93;;;4.57;;
41201;SDS011;26936;50.524;8.684;2022-10-17T03:48:57;7.38;;;4.60;;
41201;SDS011;26936;50.524;8.684;2022-10-17T03:51:22;7.25;;;4.30;;
41201;SDS011;26936;50.524;8.684;2022-10-17T03:53:48;9.27;;;4.40;;
41201;SDS011;26936;50.524;8.684;2022-10-17T03:56:14;12.20;;;4.60;;
41201;SDS011;26936;50.524;8.684;2022-10-17T03:58:41;8.00;;;4.65;;
41201;SDS011;26936;50.524;8.684;2022-10-17T04:01:08;8.75;;;4.22;;
41201;SDS011;26936;50.524;8.684;2022-10-17T04:03:35;7.88;;;4.72;;
41201;SDS011;26936;50.524;8.684;2022-10-17T04:06:01;8.27;;;4.68;;
41201;SDS011;26936;50.524;8.684;2022-10-17T04:08:28;9.05;;;4.57;;
41201;SDS011;26936;50.524;8.684;2022-10-17T04:10:58;14.05;;;5.40;;
41201;SDS011;26936;50.524;8.684;2022-10-17T04:13:24;8.27;;;5.32;;
41201;SDS011;26936;50.524;8.684;2022-10-17T04:15:53;11.18;;;5.13;;
41201;SDS011;26936;50.524;8.684;2022-10-17T04:18:23;7.60;;;5.38;;
41201;SDS011;26936;50.524;8.684;2022-10-17T04:20:48;8.63;;;4.78;;
41201;SDS011;26936;50.524;8.684;2022-10-17T04:23:14;8.70;;;5.65;;
41201;SDS011;26936;50.524;8.684;2022-10-17T04:25:39;11.80;;;4.93;;
41201;SDS011;26936;50.524;8.684;2022-10-17T04:28:04;11.50;;;5.40;;
41201;SDS011;26936;50.524;8.684;2022-10-17T04:30:29;7.38;;;5.10;;
41201;SDS011;26936;50.524;8.684;2022-10-17T04:32:55;6.53;;;4.57;;
41201;SDS011;26936;50.524;8.684;2022-10-17T04:35:20;7.97;;;4.60;;
41201;SDS011;26936;50.524;8.684;2022-10-17T04:37:46;8.80;;;4.70;;
41201;SDS011;26936;50.524;8.684;2022-10-17T04:40:11;11.13;;;4.93;;
41201;SDS011;26936;50.524;8.684;2022-10-17T04:42:36;9.88;;;4.57;;
41201;SDS011;26936;50.524;8.684;2022-10-17T04:45:02;8.63;;;4.73;;
41201;SDS011;26936;50.524;8.684;2022-10-17T04:47:27;6.30;;;4.28;;
41201;SDS011;26936;50.524;8.684;2022-10-17T04:49:53;13.77;;;5.50;;
41201;SDS011;26936;50.524;8.684;2022-10-17T04:52:18;8.33;;;4.77;;
41201;SDS011;26936;50.524;8.684;2022-10-17T04:54:43;8.30;;;4.90;;
41201;SDS011;26936;50.524;8.684;2022-10-17T04:57:08;7.13;;;4.40;;
41201;SDS011;26936;50.524;8.684;2022-10-17T04:59:34;11.77;;;4.53;;
41201;SDS011;26936;50.524;8.684;2022-10-17T05:01:59;6.28;;;4.60;;
41201;SDS011;26936;50.524;8.684;2022-10-17T05:04:24;9.50;;;4.90;;
41201;SDS011;26936;50.524;8.684;2022-10-17T05:06:50;8.63;;;4.47;;
41201;SDS011;26936;50.524;8.684;2022-10-17T05:09:16;10.35;;;5.28;;
41201;SDS011;26936;50.524;8.684;2022-10-17T05:11:41;11.73;;;4.80;;
41201;SDS011;26936;50.524;8.684;2022-10-17T05:14:07;9.43;;;4.82;;
41201;SDS011;26936;50.524;8.684;2022-10-17T05:16:32;10.20;;;5.17;;
41201;SDS011;26936;50.524;8.684;2022-10-17T05:18:58;8.98;;;4.65;;
41201;SDS011;26936;50.524;8.684;2022-10-17T05:21:24;7.60;;;4.45;;
41201;SDS011;26936;50.524;8.684;2022-10-17T05:23:50;8.57;;;4.30;;
41201;SDS011;26936;50.524;8.684;2022-10-17T05:26:16;8.15;;;4.20;;
41201;SDS011;26936;50.524;8.684;2022-10-17T05:28:41;7.18;;;3.83;;
41201;SDS011;26936;50.524;8.684;2022-10-17T05:31:07;10.35;;;4.50;;
41201;SDS011;26936;50.524;8.684;2022-10-17T05:33:34;6.63;;;4.50;;
41201;SDS011;26936;50.524;8.684;2022-10-17T05:36:00;9.90;;;4.40;;
41201;SDS011;26936;50.524;8.684;2022-10-17T05:38:26;8.73;;;4.57;;
41201;SDS011;26936;50.524;8.684;2022-10-17T05:40:55;11.75;;;4.68;;
41201;SDS011;26936;50.524;8.684;2022-10-17T05:45:50;5.60;;;4.20;;
41201;SDS011;26936;50.524;8.684;2022-10-17T05:48:15;8.65;;;4.22;;
41201;SDS011;26936;50.524;8.684;2022-10-17T05:50:41;7.45;;;4.13;;
41201;SDS011;26936;50.524;8.684;2022-10-17T05:53:06;12.53;;;4.13;;
41201;SDS011;26936;50.524;8.684;2022-10-17T05:55:31;6.82;;;3.83;;
41201;SDS011;26936;50.524;8.684;2022-10-17T05:57:58;11.20;;;4.50;;
41201;SDS011;26936;50.524;8.684;2022-10-17T06:00:24;7.47;;;4.78;;
41201;SDS011;26936;50.524;8.684;2022-10-17T06:02:49;8.47;;;4.23;;
41201;SDS011;26936;50.524;8.684;2022-10-17T06:05:14;9.98;;;4.47;;
41201;SDS011;26936;50.524;8.684;2022-10-17T06:07:40;7.35;;;4.30;;
41201;SDS011;26936;50.524;8.684;2022-10-17T06:10:06;8.55;;;4.32;;
41201;SDS011;26936;50.524;8.684;2022-10-17T06:12:31;8.13;;;4.53;;
41201;SDS011;26936;50.524;8.684;2022-10-17T06:14:57;9.13;;;4.60;;
41201;SDS011;26936;50.524;8.684;2022-10-17T06:17:22;7.20;;;4.00;;
41201;SDS011;26936;50.524;8.684;2022-10-17T06:19:48;13.73;;;4.17;;
41201;SDS011;26936;50.524;8.684;2022-10-17T06:22:13;7.93;;;4.37;;
41201;SDS011;26936;50.524;8.684;2022-10-17T06:24:38;7.20;;;3.80;;
41201;SDS011;26936;50.524;8.684;2022-10-17T06:27:04;8.73;;;4.45;;
41201;SDS011;26936;50.524;8.684;2022-10-17T06:29:29;8.05;;;3.92;;
41201;SDS011;26936;50.524;8.684;2022-10-17T06:31:54;8.83;;;4.53;;
41201;SDS011;26936;50.524;8.684;2022-10-17T06:34:20;7.67;;;3.80;;
41201;SDS011;26936;50.524;8.684;2022-10-17T06:36:46;7.30;;;3.72;;
41201;SDS011;26936;50.524;8.684;2022-10-17T06:39:11;13.45;;;4.10;;
41201;SDS011;26936;50.524;8.684;2022-10-17T06:41:37;9.65;;;4.00;;
41201;SDS011;26936;50.524;8.684;2022-10-17T06:44:05;6.95;;;4.07;;
41201;SDS011;26936;50.524;8.684;2022-10-17T06:46:34;7.50;;;3.70;;
41201;SDS011;26936;50.524;8.684;2022-10-17T06:49:00;8.73;;;3.90;;
41201;SDS011;26936;50.524;8.684;2022-10-17T06:51:25;7.83;;;4.40;;
41201;SDS011;26936;50.524;8.684;2022-10-17T06:53:50;6.03;;;3.70;;
41201;SDS011;26936;50.524;8.684;2022-10-17T06:56:16;9.83;;;3.90;;
41201;SDS011;26936;50.524;8.684;2022-10-17T06:58:41;5.00;;;4.10;;
41201;SDS011;26936;50.524;8.684;2022-10-17T07:01:08;7.90;;;3.92;;
41201;SDS011;26936;50.524;8.684;2022-10-17T07:03:35;5.63;;;3.40;;
41201;SDS011;26936;50.524;8.684;2022-10-17T07:06:01;6.70;;;3.70;;
41201;SDS011;26936;50.524;8.684;2022-10-17T07:08:27;7.50;;;4.30;;
41201;SDS011;26936;50.524;8.684;2022-10-17T07:10:52;6.70;;;3.55;;
41201;SDS011;26936;50.524;8.684;2022-10-17T07:13:18;8.15;;;3.78;;
41201;SDS011;26936;50.524;8.684;2022-10-17T07:15:44;6.85;;;3.70;;
41201;SDS011;26936;50.524;8.684;2022-10-17T07:18:10;9.38;;;3.55;;
41201;SDS011;26936;50.524;8.684;2022-10-17T07:20:35;7.05;;;3.13;;
41201;SDS011;26936;50.524;8.684;2022-10-17T07:23:01;9.65;;;4.40;;
41201;SDS011;26936;50.524;8.684;2022-10-17T07:25:26;5.32;;;3.30;;
41201;SDS011;26936;50.524;8.684;2022-10-17T07:27:52;13.10;;;3.92;;
41201;SDS011;26936;50.524;8.684;2022-10-17T07:30:18;7.82;;;3.42;;
41201;SDS011;26936;50.524;8.684;2022-10-17T07:32:43;7.88;;;3.78;;
41201;SDS011;26936;50.524;8.684;2022-10-17T07:35:09;7.22;;;3.78;;
41201;SDS011;26936;50.524;8.684;2022-10-17T07:37:35;6.45;;;3.58;;
41201;SDS011;26936;50.524;8.684;2022-10-17T07:40:01;6.15;;;3.33;;
41201;SDS011;26936;50.524;8.684;2022-10-17T07:42:26;14.18;;;3.80;;
41201;SDS011;26936;50.524;8.684;2022-10-17T07:44:52;6.50;;;3.40;;
41201;SDS011;26936;50.524;8.684;2022-10-17T07:47:18;6.88;;;3.40;;
41201;SDS011;26936;50.524;8.684;2022-10-17T07:49:43;7.13;;;3.55;;
41201;SDS011;26936;50.524;8.684;2022-10-17T07:52:12;7.70;;;3.63;;
41201;SDS011;26936;50.524;8.684;2022-10-17T07:54:39;13.80;;;3.63;;
41201;SDS011;26936;50.524;8.684;2022-10-17T07:57:05;9.45;;;4.00;;
41201;SDS011;26936;50.524;8.684;2022-10-17T07:59:34;8.00;;;3.67;;
41201;SDS011;26936;50.524;8.684;2022-10-17T08:02:00;4.97;;;3.67;;
41201;SDS011;26936;50.524;8.684;2022-10-17T08:04:26;8.95;;;4.03;;
41201;SDS011;26936;50.524;8.684;2022-10-17T08:06:51;8.13;;;3.22;;
41201;SDS011;26936;50.524;8.684;2022-10-17T08:09:17;8.05;;;4.03;;
41201;SDS011;26936;50.524;8.684;2022-10-17T08:11:42;5.33;;;3.90;;
41201;SDS011;26936;50.524;8.684;2022-10-17T08:14:08;7.60;;;3.50;;
41201;SDS011;26936;50.524;8.684;2022-10-17T08:16:34;7.43;;;3.40;;
41201;SDS011;26936;50.524;8.684;2022-10-17T08:19:00;4.18;;;3.05;;
41201;SDS011;26936;50.524;8.684;2022-10-17T08:21:25;5.07;;;3.25;;
41201;SDS011;26936;50.524;8.684;2022-10-17T08:23:50;6.17;;;2.73;;
41201;SDS011;26936;50.524;8.684;2022-10-17T08:26:16;8.10;;;3.27;;
41201;SDS011;26936;50.524;8.684;2022-10-17T08:28:44;8.52;;;3.60;;
41201;SDS011;26936;50.524;8.684;2022-10-17T08:31:13;6.28;;;3.08;;
41201;SDS011;26936;50.524;8.684;2022-10-17T08:33:42;8.25;;;2.95;;
41201;SDS011;26936;50.524;8.684;2022-10-17T08:36:07;7.28;;;3.08;;
41201;SDS011;26936;50.524;8.684;2022-10-17T08:38:34;6.78;;;3.20;;
41201;SDS011;26936;50.524;8.684;2022-10-17T08:41:01;6.32;;;3.22;;
41201;SDS011;26936;50.524;8.684;2022-10-17T08:43:43;5.13;;;2.67;;
41201;SDS011;26936;50.524;8.684;2022-10-17T08:46:19;6.67;;;2.93;;
41201;SDS011;26936;50.524;8.684;2022-10-17T08:48:45;5.78;;;3.03;;
41201;SDS011;26936;50.524;8.684;2022-10-17T08:51:25;5.40;;;2.58;;
41201;SDS011;26936;50.524;8.684;2022-10-17T08:56:35;6.82;;;2.42;;
41201;SDS011;26936;50.524;8.684;2022-10-17T08:59:09;5.00;;;2.60;;
41201;SDS011;26936;50.524;8.684;2022-10-17T09:01:43;7.43;;;2.80;;
41201;SDS011;26936;50.524;8.684;2022-10-17T09:04:28;5.63;;;3.00;;
41201;SDS011;26936;50.524;8.684;2022-10-17T09:17:55;4.82;;;2.47;;
41201;SDS011;26936;50.524;8.684;2022-10-17T09:25:27;2.92;;;2.15;;
41201;SDS011;26936;50.524;8.684;2022-10-17T09:28:10;4.07;;;2.53;;
41201;SDS011;26936;50.524;8.684;2022-10-17T09:33:11;7.05;;;2.72;;
41201;SDS011;26936;50.524;8.684;2022-10-17T09:35:39;12.75;;;2.70;;
41201;SDS011;26936;50.524;8.684;2022-10-17T09:38:09;7.22;;;3.10;;
41201;SDS011;26936;50.524;8.684;2022-10-17T09:40:39;7.13;;;2.63;;
41201;SDS011;26936;50.524;8.684;2022-10-17T09:43:05;6.85;;;2.88;;
41201;SDS011;26936;50.524;8.684;2022-10-17T09:45:36;7.57;;;2.58;;
41201;SDS011;26936;50.524;8.684;2022-10-17T09:50:55;4.47;;;2.63;;
41201;SDS011;26936;50.524;8.684;2022-10-17T09:53:22;4.20;;;3.05;;
41201;SDS011;26936;50.524;8.684;2022-10-17T09:55:54;8.43;;;3.23;;
41201;SDS011;26936;50.524;8.684;2022-10-17T09:58:21;6.72;;;3.28;;
41201;SDS011;26936;50.524;8.684;2022-10-17T10:00:47;6.55;;;2.85;;
41201;SDS011;26936;50.524;8.684;2022-10-17T10:05:59;6.55;;;2.92;;
41201;SDS011;26936;50.524;8.684;2022-10-17T10:08:32;4.32;;;2.90;;
41201;SDS011;26936;50.524;8.684;2022-10-17T10:11:02;6.07;;;3.08;;
41201;SDS011;26936;50.524;8.684;2022-10-17T10:13:32;6.85;;;3.05;;
41201;SDS011;26936;50.524;8.684;2022-10-17T10:16:19;7.38;;;3.05;;
41201;SDS011;26936;50.524;8.684;2022-10-17T10:18:48;4.68;;;2.78;;
41201;SDS011;26936;50.524;8.684;2022-10-17T10:21:15;5.45;;;3.13;;
41201;SDS011;26936;50.524;8.684;2022-10-17T10:24:01;5.57;;;2.85;;
41201;SDS011;26936;50.524;8.684;2022-10-17T10:26:46;4.57;;;2.97;;
41201;SDS011;26936;50.524;8.684;2022-10-17T10:29:26;9.35;;;3.00;;
41201;SDS011;26936;50.524;8.684;2022-10-17T10:31:58;7.15;;;2.78;;
41201;SDS011;26936;50.524;8.684;2022-10-17T10:34:36;7.15;;;2.83;;
41201;SDS011;26936;50.524;8.684;2022-10-17T10:37:23;5.05;;;2.83;;
41201;SDS011;26936;50.524;8.684;2022-10-17T10:39:51;6.47;;;2.63;;
41201;SDS011;26936;50.524;8.684;2022-10-17T10:42:22;6.28;;;3.03;;
41201;SDS011;26936;50.524;8.684;2022-10-17T10:44:50;3.95;;;2.58;;
41201;SDS011;26936;50.524;8.684;2022-10-17T10:47:23;5.65;;;2.70;;
41201;SDS011;26936;50.524;8.684;2022-10-17T10:49:52;6.45;;;2.67;;
41201;SDS011;26936;50.524;8.684;2022-10-17T10:52:35;4.60;;;2.75;;
41201;SDS011;26936;50.524;8.684;2022-10-17T10:55:14;6.88;;;2.75;;
41201;SDS011;26936;50.524;8.684;2022-10-17T10:57:44;5.97;;;2.70;;
41201;SDS011;26936;50.524;8.684;2022-10-17T11:00:18;3.08;;;2.30;;
41201;SDS011;26936;50.524;8.684;2022-10-17T11:02:56;6.10;;;2.40;;
41201;SDS011;26936;50.524;8.684;2022-10-17T11:08:44;3.08;;;2.33;;
41201;SDS011;26936;50.524;8.684;2022-10-17T11:14:18;5.70;;;2.17;;
41201;SDS011;26936;50.524;8.684;2022-10-17T11:17:00;6.45;;;1.88;;
41201;SDS011;26936;50.524;8.684;2022-10-17T11:19:48;4.45;;;1.77;;
41201;SDS011;26936;50.524;8.684;2022-10-17T11:22:22;4.78;;;1.90;;
41201;SDS011;26936;50.524;8.684;2022-10-17T11:24:57;5.55;;;1.90;;
41201;SDS011;26936;50.524;8.684;2022-10-17T11:27:24;4.07;;;2.00;;
41201;SDS011;26936;50.524;8.684;2022-10-17T11:29:53;4.40;;;2.13;;
41201;SDS011;26936;50.524;8.684;2022-10-17T11:32:21;4.57;;;2.20;;
41201;SDS011;26936;50.524;8.684;2022-10-17T11:34:53;5.78;;;2.10;;
41201;SDS011;26936;50.524;8.684;2022-10-17T11:37:34;4.35;;;1.77;;
41201;SDS011;26936;50.524;8.684;2022-10-17T11:40:19;5.47;;;2.10;;
41201;SDS011;26936;50.524;8.684;2022-10-17T11:45:56;5.70;;;1.98;;
41201;SDS011;26936;50.524;8.684;2022-10-17T11:48:29;4.68;;;1.80;;
41201;SDS011;26936;50.524;8.684;2022-10-17T11:51:08;3.17;;;1.70;;
41201;SDS011;26936;50.524;8.684;2022-10-17T11:53:43;3.83;;;1.88;;
41201;SDS011;26936;50.524;8.684;2022-10-17T11:56:14;5.85;;;2.10;;
41201;SDS011;26936;50.524;8.684;2022-10-17T11:58:46;3.38;;;2.00;;
41201;SDS011;26936;50.524;8.684;2022-10-17T12:01:33;2.92;;;1.80;;
41201;SDS011;26936;50.524;8.684;2022-10-17T12:07:19;4.03;;;1.92;;
41201;SDS011;26936;50.524;8.684;2022-10-17T12:09:53;5.22;;;1.98;;
41201;SDS011;26936;50.524;8.684;2022-10-17T12:12:28;6.72;;;2.08;;
41201;SDS011;26936;50.524;8.684;2022-10-17T12:17:35;3.05;;;1.88;;
41201;SDS011;26936;50.524;8.684;2022-10-17T12:20:23;9.20;;;2.15;;
41201;SDS011;26936;50.524;8.684;2022-10-17T12:25:35;6.47;;;1.98;;
41201;SDS011;26936;50.524;8.684;2022-10-17T12:30:56;4.95;;;2.03;;
41201;SDS011;26936;50.524;8.684;2022-10-17T12:38:40;4.68;;;2.08;;
41201;SDS011;26936;50.524;8.684;2022-10-17T12:41:05;6.07;;;2.33;;
41201;SDS011;26936;50.524;8.684;2022-10-17T12:43:33;8.63;;;2.40;;
41201;SDS011;26936;50.524;8.684;2022-10-17T12:46:01;5.85;;;2.15;;
41201;SDS011;26936;50.524;8.684;2022-10-17T12:51:00;5.28;;;2.33;;
41201;SDS011;26936;50.524;8.684;2022-10-17T12:56:14;4.65;;;2.60;;
41201;SDS011;26936;50.524;8.684;2022-10-17T12:58:42;8.52;;;2.08;;
41201;SDS011;26936;50.524;8.684;2022-10-17T13:01:16;3.70;;;1.80;;
41201;SDS011;26936;50.524;8.684;2022-10-17T13:03:45;5.22;;;1.80;;
41201;SDS011;26936;50.524;8.684;2022-10-17T13:06:18;4.47;;;2.17;;
41201;SDS011;26936;50.524;8.684;2022-10-17T13:11:13;6.20;;;1.80;;
41201;SDS011;26936;50.524;8.684;2022-10-17T13:13:45;4.45;;;1.85;;
41201;SDS011;26936;50.524;8.684;2022-10-17T13:16:26;5.15;;;2.08;;
41201;SDS011;26936;50.524;8.684;2022-10-17T13:18:56;6.22;;;2.15;;
41201;SDS011;26936;50.524;8.684;2022-10-17T13:21:22;5.13;;;2.50;;
41201;SDS011;26936;50.524;8.684;2022-10-17T13:23:48;6.65;;;2.83;;
41201;SDS011;26936;50.524;8.684;2022-10-17T13:26:19;4.43;;;2.22;;
41201;SDS011;26936;50.524;8.684;2022-10-17T13:29:19;7.57;;;2.10;;
41201;SDS011;26936;50.524;8.684;2022-10-17T13:31:40;6.77;;;2.93;;
41201;SDS011;26936;50.524;8.684;2022-10-17T13:34:16;5.78;;;1.98;;
41201;SDS011;26936;50.524;8.684;2022-10-17T13:36:45;4.10;;;1.98;;
41201;SDS011;26936;50.524;8.684;2022-10-17T13:39:13;6.22;;;2.30;;
41201;SDS011;26936;50.524;8.684;2022-10-17T13:41:42;4.35;;;2.30;;
41201;SDS011;26936;50.524;8.684;2022-10-17T13:44:12;3.45;;;2.00;;
41201;SDS011;26936;50.524;8.684;2022-10-17T13:46:41;4.18;;;1.77;;
41201;SDS011;26936;50.524;8.684;2022-10-17T13:49:14;5.07;;;1.85;;
41201;SDS011;26936;50.524;8.684;2022-10-17T13:51:47;4.03;;;1.88;;
41201;SDS011;26936;50.524;8.684;2022-10-17T13:54:29;4.53;;;1.90;;
41201;SDS011;26936;50.524;8.684;2022-10-17T13:56:57;9.43;;;2.10;;
41201;SDS011;26936;50.524;8.684;2022-10-17T13:59:24;5.80;;;2.00;;
41201;SDS011;26936;50.524;8.684;2022-10-17T14:01:55;5.13;;;2.22;;
41201;SDS011;26936;50.524;8.684;2022-10-17T14:04:21;4.47;;;1.92;;
41201;SDS011;26936;50.524;8.684;2022-10-17T14:06:46;5.03;;;2.28;;
41201;SDS011;26936;50.524;8.684;2022-10-17T14:09:17;6.95;;;1.80;;
41201;SDS011;26936;50.524;8.684;2022-10-17T14:12:02;4.85;;;1.85;;
41201;SDS011;26936;50.524;8.684;2022-10-17T14:14:34;4.68;;;1.83;;
41201;SDS011;26936;50.524;8.684;2022-10-17T14:17:00;3.80;;;1.70;;
41201;SDS011;26936;50.524;8.684;2022-10-17T14:19:32;4.60;;;1.90;;
41201;SDS011;26936;50.524;8.684;2022-10-17T14:24:45;4.40;;;1.75;;
41201;SDS011;26936;50.524;8.684;2022-10-17T14:30:00;8.40;;;2.17;;
41201;SDS011;26936;50.524;8.684;2022-10-17T14:32:28;4.15;;;2.15;;
41201;SDS011;26936;50.524;8.684;2022-10-17T14:34:56;6.95;;;2.10;;
41201;SDS011;26936;50.524;8.684;2022-10-17T14:42:43;4.10;;;2.03;;
41201;SDS011;26936;50.524;8.684;2022-10-17T14:45:23;7.20;;;1.98;;
41201;SDS011;26936;50.524;8.684;2022-10-17T14:47:59;4.60;;;2.15;;
41201;SDS011;26936;50.524;8.684;2022-10-17T14:50:31;6.18;;;1.90;;
41201;SDS011;26936;50.524;8.684;2022-10-17T14:53:19;8.68;;;2.15;;
41201;SDS011;26936;50.524;8.684;2022-10-17T14:55:58;5.15;;;1.90;;
41201;SDS011;26936;50.524;8.684;2022-10-17T14:58:26;3.97;;;2.53;;
41201;SDS011;26936;50.524;8.684;2022-10-17T15:00:53;5.80;;;1.90;;
41201;SDS011;26936;50.524;8.684;2022-10-17T15:03:19;5.18;;;1.98;;
41201;SDS011;26936;50.524;8.684;2022-10-17T15:05:47;5.65;;;1.98;;
41201;SDS011;26936;50.524;8.684;2022-10-17T15:08:15;5.80;;;1.92;;
41201;SDS011;26936;50.524;8.684;2022-10-17T15:10:42;6.53;;;1.92;;
41201;SDS011;26936;50.524;8.684;2022-10-17T15:13:08;4.75;;;2.17;;
41201;SDS011;26936;50.524;8.684;2022-10-17T15:15:35;3.15;;;1.95;;
41201;SDS011;26936;50.524;8.684;2022-10-17T15:18:01;3.65;;;1.95;;
41201;SDS011;26936;50.524;8.684;2022-10-17T15:20:27;7.72;;;2.25;;
41201;SDS011;26936;50.524;8.684;2022-10-17T15:22:54;6.05;;;2.15;;
41201;SDS011;26936;50.524;8.684;2022-10-17T15:25:24;6.65;;;2.13;;
41201;SDS011;26936;50.524;8.684;2022-10-17T15:27:50;5.65;;;2.47;;
41201;SDS011;26936;50.524;8.684;2022-10-17T15:32:44;6.70;;;2.50;;
41201;SDS011;26936;50.524;8.684;2022-10-17T15:35:10;8.38;;;2.90;;
41201;SDS011;26936;50.524;8.684;2022-10-17T15:37:35;5.65;;;2.50;;
41201;SDS011;26936;50.524;8.684;2022-10-17T15:40:00;8.75;;;2.30;;
41201;SDS011;26936;50.524;8.684;2022-10-17T15:42:27;7.27;;;2.90;;
41201;SDS011;26936;50.524;8.684;2022-10-17T15:44:53;11.45;;;2.40;;
41201;SDS011;26936;50.524;8.684;2022-10-17T15:47:29;5.80;;;2.78;;
41201;SDS011;26936;50.524;8.684;2022-10-17T15:49:59;6.97;;;2.65;;
41201;SDS011;26936;50.524;8.684;2022-10-17T15:52:25;20.27;;;11.55;;
41201;SDS011;26936;50.524;8.684;2022-10-17T15:54:51;8.88;;;2.67;;
41201;SDS011;26936;50.524;8.684;2022-10-17T15:57:37;5.97;;;2.58;;
41201;SDS011;26936;50.524;8.684;2022-10-17T16:00:19;5.38;;;2.60;;
41201;SDS011;26936;50.524;8.684;2022-10-17T16:02:46;7.05;;;2.88;;
41201;SDS011;26936;50.524;8.684;2022-10-17T16:05:23;7.53;;;3.15;;
41201;SDS011;26936;50.524;8.684;2022-10-17T16:07:50;9.07;;;2.85;;
41201;SDS011;26936;50.524;8.684;2022-10-17T16:10:16;5.28;;;2.28;;
41201;SDS011;26936;50.524;8.684;2022-10-17T16:12:43;10.23;;;3.22;;
41201;SDS011;26936;50.524;8.684;2022-10-17T16:15:16;5.00;;;2.63;;
41201;SDS011;26936;50.524;8.684;2022-10-17T16:17:43;6.93;;;2.78;;
41201;SDS011;26936;50.524;8.684;2022-10-17T16:20:09;6.28;;;2.65;;
41201;SDS011;26936;50.524;8.684;2022-10-17T16:22:39;6.93;;;2.78;;
41201;SDS011;26936;50.524;8.684;2022-10-17T16:25:09;13.95;;;3.30;;
41201;SDS011;26936;50.524;8.684;2022-10-17T16:27:43;9.23;;;2.42;;
41201;SDS011;26936;50.524;8.684;2022-10-17T16:30:10;5.45;;;2.38;;
41201;SDS011;26936;50.524;8.684;2022-10-17T16:32:35;6.30;;;2.73;;
41201;SDS011;26936;50.524;8.684;2022-10-17T16:35:00;4.63;;;2.40;;
41201;SDS011;26936;50.524;8.684;2022-10-17T16:37:26;7.55;;;2.47;;
41201;SDS011;26936;50.524;8.684;2022-10-17T16:39:51;6.93;;;2.30;;
41201;SDS011;26936;50.524;8.684;2022-10-17T16:42:18;3.70;;;2.13;;
41201;SDS011;26936;50.524;8.684;2022-10-17T16:44:46;3.05;;;1.88;;